Maldives Meteorological Service

TAFS

Station TAF
VRMM
VRMM 191100Z 1912/2018 07014KT 7000 FEW018 TEMPO 1912/1918 FEW018CB=
VRMH
VRMH 191100Z 1912/2012 07007KT 6000 FEW018 TEMPO 1912/1918 5000 HZ=
VRMK
VRMK 191100Z 1912/2012 04010KT 7000 FEW018 TEMPO 1912/1918 FEW018CB=
VRMT
VRMT 191100Z 1912/2012 05008KT 7000 FEW018 TEMPO 1912/1918 FEW018CB=
VRMG
VRMG 191100Z 1912/2018 05009KT 7000 FEW018 TEMPO 1912/1918 FEW018CB=